sensor_id;sensor_type;location;lat;lon;timestamp;P1;durP1;ratioP1;P2;durP2;ratioP2
69485;SDS011;56677;51.710;5.366;2023-05-10T04:46:57;9.45;;;4.70;;
69485;SDS011;56677;51.710;5.366;2023-05-10T04:49:22;7.90;;;4.90;;
69485;SDS011;56677;51.710;5.366;2023-05-10T04:51:48;7.70;;;4.10;;
69485;SDS011;56677;51.710;5.366;2023-05-10T04:54:13;8.15;;;4.00;;
69485;SDS011;56677;51.710;5.366;2023-05-10T04:56:38;6.50;;;3.97;;
69485;SDS011;56677;51.710;5.366;2023-05-10T04:59:03;9.90;;;3.95;;
69485;SDS011;56677;51.710;5.366;2023-05-10T05:01:28;9.43;;;4.40;;
69485;SDS011;56677;51.710;5.366;2023-05-10T05:03:53;10.57;;;4.32;;
69485;SDS011;56677;51.710;5.366;2023-05-10T05:06:18;9.53;;;4.23;;
69485;SDS011;56677;51.710;5.366;2023-05-10T05:08:43;8.07;;;3.83;;
69485;SDS011;56677;51.710;5.366;2023-05-10T05:11:09;10.17;;;4.70;;
69485;SDS011;56677;51.710;5.366;2023-05-10T05:13:34;7.72;;;3.95;;
69485;SDS011;56677;51.710;5.366;2023-05-10T05:16:00;6.53;;;3.93;;
69485;SDS011;56677;51.710;5.366;2023-05-10T05:18:25;8.75;;;3.65;;
69485;SDS011;56677;51.710;5.366;2023-05-10T05:20:50;7.20;;;4.05;;
69485;SDS011;56677;51.710;5.366;2023-05-10T05:23:15;6.95;;;3.75;;
69485;SDS011;56677;51.710;5.366;2023-05-10T05:25:40;7.55;;;4.65;;
69485;SDS011;56677;51.710;5.366;2023-05-10T05:28:05;10.25;;;4.40;;
69485;SDS011;56677;51.710;5.366;2023-05-10T05:30:30;9.52;;;4.40;;
69485;SDS011;56677;51.710;5.366;2023-05-10T05:32:55;8.82;;;4.22;;
69485;SDS011;56677;51.710;5.366;2023-05-10T05:35:21;8.93;;;4.50;;
69485;SDS011;56677;51.710;5.366;2023-05-10T05:37:46;9.02;;;4.38;;
69485;SDS011;56677;51.710;5.366;2023-05-10T05:40:14;7.95;;;4.07;;
69485;SDS011;56677;51.710;5.366;2023-05-10T05:42:39;8.02;;;4.55;;
69485;SDS011;56677;51.710;5.366;2023-05-10T05:45:04;10.07;;;3.97;;
69485;SDS011;56677;51.710;5.366;2023-05-10T05:47:29;9.60;;;4.33;;
69485;SDS011;56677;51.710;5.366;2023-05-10T05:49:55;8.43;;;4.10;;
69485;SDS011;56677;51.710;5.366;2023-05-10T05:52:20;7.45;;;4.03;;
69485;SDS011;56677;51.710;5.366;2023-05-10T05:54:45;15.75;;;6.80;;
69485;SDS011;56677;51.710;5.366;2023-05-10T05:57:10;13.15;;;7.60;;
69485;SDS011;56677;51.710;5.366;2023-05-10T05:59:35;11.85;;;6.65;;
69485;SDS011;56677;51.710;5.366;2023-05-10T06:02:00;11.05;;;5.85;;
69485;SDS011;56677;51.710;5.366;2023-05-10T06:04:25;11.75;;;5.85;;
69485;SDS011;56677;51.710;5.366;2023-05-10T06:06:50;9.67;;;5.30;;
69485;SDS011;56677;51.710;5.366;2023-05-10T06:09:16;10.27;;;4.95;;
69485;SDS011;56677;51.710;5.366;2023-05-10T06:11:41;9.75;;;5.15;;
69485;SDS011;56677;51.710;5.366;2023-05-10T06:14:06;8.33;;;4.70;;
69485;SDS011;56677;51.710;5.366;2023-05-10T06:16:31;10.90;;;5.50;;
69485;SDS011;56677;51.710;5.366;2023-05-10T06:18:56;10.05;;;5.20;;
69485;SDS011;56677;51.710;5.366;2023-05-10T06:21:21;9.57;;;4.68;;
69485;SDS011;56677;51.710;5.366;2023-05-10T06:23:46;8.57;;;4.33;;
69485;SDS011;56677;51.710;5.366;2023-05-10T06:26:12;9.70;;;4.82;;
69485;SDS011;56677;51.710;5.366;2023-05-10T06:28:37;9.57;;;4.37;;
69485;SDS011;56677;51.710;5.366;2023-05-10T06:31:02;9.55;;;4.72;;
69485;SDS011;56677;51.710;5.366;2023-05-10T06:33:27;10.53;;;4.67;;
69485;SDS011;56677;51.710;5.366;2023-05-10T06:35:52;9.55;;;4.68;;
69485;SDS011;56677;51.710;5.366;2023-05-10T06:38:17;7.25;;;3.97;;
69485;SDS011;56677;51.710;5.366;2023-05-10T06:40:42;11.63;;;4.73;;
69485;SDS011;56677;51.710;5.366;2023-05-10T06:43:08;13.87;;;4.67;;
69485;SDS011;56677;51.710;5.366;2023-05-10T06:45:33;12.83;;;4.17;;
69485;SDS011;56677;51.710;5.366;2023-05-10T06:47:58;12.00;;;4.88;;
69485;SDS011;56677;51.710;5.366;2023-05-10T06:50:23;10.23;;;4.33;;
69485;SDS011;56677;51.710;5.366;2023-05-10T06:52:48;13.23;;;4.87;;
69485;SDS011;56677;51.710;5.366;2023-05-10T06:55:13;14.85;;;5.03;;
69485;SDS011;56677;51.710;5.366;2023-05-10T06:57:38;12.95;;;4.60;;
69485;SDS011;56677;51.710;5.366;2023-05-10T07:00:04;9.93;;;5.03;;
69485;SDS011;56677;51.710;5.366;2023-05-10T07:02:29;10.37;;;4.20;;
69485;SDS011;56677;51.710;5.366;2023-05-10T07:04:54;10.57;;;4.28;;
69485;SDS011;56677;51.710;5.366;2023-05-10T07:07:19;11.32;;;4.35;;
69485;SDS011;56677;51.710;5.366;2023-05-10T07:09:45;11.30;;;4.72;;
69485;SDS011;56677;51.710;5.366;2023-05-10T07:12:10;10.83;;;4.90;;
69485;SDS011;56677;51.710;5.366;2023-05-10T07:14:35;9.25;;;4.03;;
69485;SDS011;56677;51.710;5.366;2023-05-10T07:17:00;11.35;;;4.22;;
69485;SDS011;56677;51.710;5.366;2023-05-10T07:19:25;13.43;;;4.93;;
69485;SDS011;56677;51.710;5.366;2023-05-10T07:21:50;12.52;;;4.30;;
69485;SDS011;56677;51.710;5.366;2023-05-10T07:24:15;13.65;;;5.03;;
69485;SDS011;56677;51.710;5.366;2023-05-10T07:26:40;14.73;;;4.60;;
69485;SDS011;56677;51.710;5.366;2023-05-10T07:29:06;16.50;;;4.50;;
69485;SDS011;56677;51.710;5.366;2023-05-10T07:31:31;15.87;;;5.97;;
69485;SDS011;56677;51.710;5.366;2023-05-10T07:33:56;15.63;;;6.70;;
69485;SDS011;56677;51.710;5.366;2023-05-10T07:36:21;20.55;;;7.05;;
69485;SDS011;56677;51.710;5.366;2023-05-10T07:38:46;14.10;;;6.47;;
69485;SDS011;56677;51.710;5.366;2023-05-10T07:41:11;18.90;;;5.53;;
69485;SDS011;56677;51.710;5.366;2023-05-10T07:43:36;14.87;;;6.63;;
69485;SDS011;56677;51.710;5.366;2023-05-10T07:46:02;17.33;;;6.47;;
69485;SDS011;56677;51.710;5.366;2023-05-10T07:48:27;12.63;;;6.55;;
69485;SDS011;56677;51.710;5.366;2023-05-10T07:50:52;14.82;;;5.75;;
69485;SDS011;56677;51.710;5.366;2023-05-10T07:53:17;17.35;;;5.75;;
69485;SDS011;56677;51.710;5.366;2023-05-10T07:55:42;11.93;;;5.60;;
69485;SDS011;56677;51.710;5.366;2023-05-10T07:58:07;15.65;;;5.38;;
69485;SDS011;56677;51.710;5.366;2023-05-10T08:00:32;14.90;;;6.13;;
69485;SDS011;56677;51.710;5.366;2023-05-10T08:02:57;13.32;;;5.88;;
69485;SDS011;56677;51.710;5.366;2023-05-10T08:05:22;13.80;;;6.18;;
69485;SDS011;56677;51.710;5.366;2023-05-10T08:07:48;14.20;;;5.68;;
69485;SDS011;56677;51.710;5.366;2023-05-10T08:10:13;14.38;;;5.43;;
69485;SDS011;56677;51.710;5.366;2023-05-10T08:12:38;17.00;;;5.87;;
69485;SDS011;56677;51.710;5.366;2023-05-10T08:15:03;14.30;;;5.60;;
69485;SDS011;56677;51.710;5.366;2023-05-10T08:17:28;9.77;;;5.13;;
69485;SDS011;56677;51.710;5.366;2023-05-10T08:19:54;15.25;;;4.97;;
69485;SDS011;56677;51.710;5.366;2023-05-10T08:22:19;17.48;;;7.32;;
69485;SDS011;56677;51.710;5.366;2023-05-10T08:24:44;15.05;;;8.05;;
69485;SDS011;56677;51.710;5.366;2023-05-10T08:27:09;19.92;;;8.55;;
69485;SDS011;56677;51.710;5.366;2023-05-10T08:29:34;18.02;;;8.90;;
69485;SDS011;56677;51.710;5.366;2023-05-10T08:31:59;16.10;;;8.03;;
69485;SDS011;56677;51.710;5.366;2023-05-10T08:34:24;18.52;;;7.28;;
69485;SDS011;56677;51.710;5.366;2023-05-10T08:36:50;15.35;;;6.50;;
69485;SDS011;56677;51.710;5.366;2023-05-10T08:39:15;12.87;;;6.10;;
69485;SDS011;56677;51.710;5.366;2023-05-10T08:41:40;12.10;;;5.97;;
69485;SDS011;56677;51.710;5.366;2023-05-10T08:44:08;10.93;;;6.07;;
69485;SDS011;56677;51.710;5.366;2023-05-10T08:46:34;12.65;;;5.72;;
69485;SDS011;56677;51.710;5.366;2023-05-10T08:48:59;13.00;;;6.57;;
69485;SDS011;56677;51.710;5.366;2023-05-10T08:51:26;12.95;;;6.43;;
69485;SDS011;56677;51.710;5.366;2023-05-10T08:53:52;15.30;;;6.13;;
69485;SDS011;56677;51.710;5.366;2023-05-10T08:56:17;12.13;;;6.10;;
69485;SDS011;56677;51.710;5.366;2023-05-10T08:58:42;11.70;;;5.73;;
69485;SDS011;56677;51.710;5.366;2023-05-10T09:01:08;11.33;;;5.67;;
69485;SDS011;56677;51.710;5.366;2023-05-10T09:03:33;11.27;;;5.47;;
69485;SDS011;56677;51.710;5.366;2023-05-10T09:05:58;12.57;;;5.53;;
69485;SDS011;56677;51.710;5.366;2023-05-10T09:08:24;10.63;;;5.65;;
69485;SDS011;56677;51.710;5.366;2023-05-10T09:10:49;13.60;;;6.90;;
69485;SDS011;56677;51.710;5.366;2023-05-10T09:13:14;10.20;;;5.90;;
69485;SDS011;56677;51.710;5.366;2023-05-10T09:15:39;11.43;;;5.80;;
69485;SDS011;56677;51.710;5.366;2023-05-10T09:18:04;11.82;;;5.65;;
69485;SDS011;56677;51.710;5.366;2023-05-10T09:20:30;10.20;;;6.18;;
69485;SDS011;56677;51.710;5.366;2023-05-10T09:22:55;10.63;;;6.18;;
69485;SDS011;56677;51.710;5.366;2023-05-10T09:25:20;11.10;;;6.03;;
69485;SDS011;56677;51.710;5.366;2023-05-10T09:27:46;12.48;;;7.10;;
69485;SDS011;56677;51.710;5.366;2023-05-10T09:30:30;13.20;;;6.13;;
69485;SDS011;56677;51.710;5.366;2023-05-10T09:32:56;10.18;;;5.75;;
69485;SDS011;56677;51.710;5.366;2023-05-10T09:35:22;11.18;;;5.82;;
69485;SDS011;56677;51.710;5.366;2023-05-10T09:37:49;11.30;;;6.45;;
69485;SDS011;56677;51.710;5.366;2023-05-10T09:40:16;13.77;;;5.50;;
69485;SDS011;56677;51.710;5.366;2023-05-10T09:45:15;10.98;;;5.60;;
69485;SDS011;56677;51.710;5.366;2023-05-10T09:47:41;8.65;;;4.68;;
69485;SDS011;56677;51.710;5.366;2023-05-10T09:50:06;10.55;;;5.28;;
69485;SDS011;56677;51.710;5.366;2023-05-10T09:52:45;11.37;;;4.90;;
69485;SDS011;56677;51.710;5.366;2023-05-10T09:55:11;10.85;;;4.53;;
69485;SDS011;56677;51.710;5.366;2023-05-10T09:57:36;9.75;;;4.50;;
69485;SDS011;56677;51.710;5.366;2023-05-10T10:00:01;11.15;;;5.30;;
69485;SDS011;56677;51.710;5.366;2023-05-10T10:02:29;10.00;;;5.00;;
69485;SDS011;56677;51.710;5.366;2023-05-10T10:04:54;11.30;;;4.83;;
69485;SDS011;56677;51.710;5.366;2023-05-10T10:07:22;10.55;;;4.43;;
69485;SDS011;56677;51.710;5.366;2023-05-10T10:09:47;10.90;;;4.67;;
69485;SDS011;56677;51.710;5.366;2023-05-10T10:12:12;9.23;;;4.60;;
69485;SDS011;56677;51.710;5.366;2023-05-10T10:14:37;8.83;;;4.77;;
69485;SDS011;56677;51.710;5.366;2023-05-10T10:17:02;13.23;;;4.63;;
69485;SDS011;56677;51.710;5.366;2023-05-10T10:19:28;8.23;;;3.63;;
69485;SDS011;56677;51.710;5.366;2023-05-10T10:21:53;9.55;;;3.92;;
69485;SDS011;56677;51.710;5.366;2023-05-10T10:24:18;10.32;;;4.40;;
69485;SDS011;56677;51.710;5.366;2023-05-10T10:26:43;8.80;;;5.00;;
69485;SDS011;56677;51.710;5.366;2023-05-10T10:31:46;9.00;;;3.97;;
69485;SDS011;56677;51.710;5.366;2023-05-10T10:34:22;7.07;;;4.18;;
69485;SDS011;56677;51.710;5.366;2023-05-10T10:36:49;10.25;;;4.68;;
69485;SDS011;56677;51.710;5.366;2023-05-10T10:39:15;6.95;;;3.95;;
69485;SDS011;56677;51.710;5.366;2023-05-10T10:41:48;6.87;;;3.60;;
69485;SDS011;56677;51.710;5.366;2023-05-10T10:47:21;7.93;;;3.77;;
69485;SDS011;56677;51.710;5.366;2023-05-10T10:55:30;11.25;;;4.35;;
69485;SDS011;56677;51.710;5.366;2023-05-10T11:02:46;9.30;;;3.77;;
69485;SDS011;56677;51.710;5.366;2023-05-10T11:07:56;8.27;;;3.45;;
69485;SDS011;56677;51.710;5.366;2023-05-10T11:10:22;7.95;;;3.95;;
69485;SDS011;56677;51.710;5.366;2023-05-10T11:12:59;12.47;;;3.47;;
69485;SDS011;56677;51.710;5.366;2023-05-10T11:15:28;7.32;;;3.72;;
69485;SDS011;56677;51.710;5.366;2023-05-10T11:17:53;10.63;;;3.63;;
69485;SDS011;56677;51.710;5.366;2023-05-10T11:20:18;9.65;;;4.55;;
69485;SDS011;56677;51.710;5.366;2023-05-10T11:22:53;8.13;;;3.97;;
69485;SDS011;56677;51.710;5.366;2023-05-10T11:25:18;14.57;;;4.10;;
69485;SDS011;56677;51.710;5.366;2023-05-10T11:27:44;10.90;;;4.23;;
69485;SDS011;56677;51.710;5.366;2023-05-10T11:30:09;10.30;;;4.50;;
69485;SDS011;56677;51.710;5.366;2023-05-10T11:32:36;13.80;;;4.90;;
69485;SDS011;56677;51.710;5.366;2023-05-10T11:35:06;11.77;;;4.17;;
69485;SDS011;56677;51.710;5.366;2023-05-10T11:37:31;8.75;;;4.00;;
69485;SDS011;56677;51.710;5.366;2023-05-10T11:39:56;8.90;;;3.67;;
69485;SDS011;56677;51.710;5.366;2023-05-10T11:42:21;11.50;;;3.83;;
69485;SDS011;56677;51.710;5.366;2023-05-10T11:44:47;9.43;;;3.80;;
69485;SDS011;56677;51.710;5.366;2023-05-10T11:47:12;7.27;;;3.87;;
69485;SDS011;56677;51.710;5.366;2023-05-10T11:49:37;8.00;;;4.00;;
69485;SDS011;56677;51.710;5.366;2023-05-10T11:52:03;12.43;;;4.30;;
69485;SDS011;56677;51.710;5.366;2023-05-10T11:54:29;7.70;;;4.10;;
69485;SDS011;56677;51.710;5.366;2023-05-10T11:56:54;8.23;;;4.00;;
69485;SDS011;56677;51.710;5.366;2023-05-10T11:59:19;9.82;;;4.00;;
69485;SDS011;56677;51.710;5.366;2023-05-10T12:01:44;8.82;;;3.78;;
69485;SDS011;56677;51.710;5.366;2023-05-10T12:04:09;6.87;;;3.90;;
69485;SDS011;56677;51.710;5.366;2023-05-10T12:06:36;7.97;;;3.60;;
69485;SDS011;56677;51.710;5.366;2023-05-10T12:09:05;8.20;;;4.00;;
69485;SDS011;56677;51.710;5.366;2023-05-10T12:11:30;7.82;;;3.28;;
69485;SDS011;56677;51.710;5.366;2023-05-10T12:13:55;8.90;;;3.40;;
69485;SDS011;56677;51.710;5.366;2023-05-10T12:16:21;6.78;;;3.80;;
69485;SDS011;56677;51.710;5.366;2023-05-10T12:18:50;7.53;;;3.73;;
69485;SDS011;56677;51.710;5.366;2023-05-10T12:21:15;9.85;;;4.05;;
69485;SDS011;56677;51.710;5.366;2023-05-10T12:23:41;8.63;;;3.27;;
69485;SDS011;56677;51.710;5.366;2023-05-10T12:26:06;7.33;;;3.40;;
69485;SDS011;56677;51.710;5.366;2023-05-10T12:28:33;6.78;;;3.20;;
69485;SDS011;56677;51.710;5.366;2023-05-10T12:30:58;4.95;;;3.00;;
69485;SDS011;56677;51.710;5.366;2023-05-10T12:33:24;8.87;;;3.70;;
69485;SDS011;56677;51.710;5.366;2023-05-10T12:35:50;8.50;;;3.70;;
69485;SDS011;56677;51.710;5.366;2023-05-10T12:40:59;7.00;;;3.35;;
69485;SDS011;56677;51.710;5.366;2023-05-10T12:43:25;6.53;;;3.60;;
69485;SDS011;56677;51.710;5.366;2023-05-10T12:45:50;7.87;;;3.23;;
69485;SDS011;56677;51.710;5.366;2023-05-10T12:48:15;6.00;;;3.27;;
69485;SDS011;56677;51.710;5.366;2023-05-10T12:50:40;6.15;;;3.20;;
69485;SDS011;56677;51.710;5.366;2023-05-10T12:53:06;5.87;;;3.40;;
69485;SDS011;56677;51.710;5.366;2023-05-10T12:55:31;5.47;;;3.30;;
69485;SDS011;56677;51.710;5.366;2023-05-10T12:57:56;6.60;;;3.65;;
69485;SDS011;56677;51.710;5.366;2023-05-10T13:00:21;8.43;;;3.80;;
69485;SDS011;56677;51.710;5.366;2023-05-10T13:02:46;6.37;;;3.57;;
69485;SDS011;56677;51.710;5.366;2023-05-10T13:05:11;7.90;;;3.40;;
69485;SDS011;56677;51.710;5.366;2023-05-10T13:07:37;6.30;;;3.17;;
69485;SDS011;56677;51.710;5.366;2023-05-10T13:10:02;6.35;;;3.50;;
69485;SDS011;56677;51.710;5.366;2023-05-10T13:12:27;6.80;;;3.40;;
69485;SDS011;56677;51.710;5.366;2023-05-10T13:14:52;7.18;;;2.80;;
69485;SDS011;56677;51.710;5.366;2023-05-10T13:17:17;7.95;;;3.05;;
69485;SDS011;56677;51.710;5.366;2023-05-10T13:19:42;12.65;;;3.17;;
69485;SDS011;56677;51.710;5.366;2023-05-10T13:22:07;8.70;;;2.67;;
69485;SDS011;56677;51.710;5.366;2023-05-10T13:24:32;13.90;;;2.83;;
69485;SDS011;56677;51.710;5.366;2023-05-10T13:26:57;6.75;;;2.75;;
69485;SDS011;56677;51.710;5.366;2023-05-10T13:29:23;12.88;;;3.08;;
69485;SDS011;56677;51.710;5.366;2023-05-10T13:31:48;10.60;;;3.25;;
69485;SDS011;56677;51.710;5.366;2023-05-10T13:34:13;10.17;;;3.10;;
69485;SDS011;56677;51.710;5.366;2023-05-10T13:36:38;7.67;;;3.40;;
69485;SDS011;56677;51.710;5.366;2023-05-10T13:39:03;10.50;;;2.90;;
69485;SDS011;56677;51.710;5.366;2023-05-10T13:41:28;9.68;;;2.85;;
69485;SDS011;56677;51.710;5.366;2023-05-10T13:43:53;6.68;;;2.60;;
69485;SDS011;56677;51.710;5.366;2023-05-10T13:46:19;11.40;;;3.28;;
69485;SDS011;56677;51.710;5.366;2023-05-10T13:48:44;12.43;;;2.92;;
69485;SDS011;56677;51.710;5.366;2023-05-10T13:51:09;10.63;;;3.00;;
69485;SDS011;56677;51.710;5.366;2023-05-10T13:53:34;14.35;;;3.35;;
69485;SDS011;56677;51.710;5.366;2023-05-10T13:55:59;12.90;;;3.38;;
69485;SDS011;56677;51.710;5.366;2023-05-10T13:58:24;13.15;;;3.45;;
69485;SDS011;56677;51.710;5.366;2023-05-10T14:00:49;6.75;;;3.03;;
69485;SDS011;56677;51.710;5.366;2023-05-10T14:03:14;9.37;;;3.50;;
69485;SDS011;56677;51.710;5.366;2023-05-10T14:05:39;8.13;;;3.28;;
69485;SDS011;56677;51.710;5.366;2023-05-10T14:08:05;9.88;;;3.20;;
69485;SDS011;56677;51.710;5.366;2023-05-10T14:10:30;9.35;;;3.10;;
69485;SDS011;56677;51.710;5.366;2023-05-10T14:12:55;7.78;;;3.25;;
69485;SDS011;56677;51.710;5.366;2023-05-10T14:15:20;8.83;;;3.33;;
69485;SDS011;56677;51.710;5.366;2023-05-10T14:17:45;7.80;;;3.40;;
69485;SDS011;56677;51.710;5.366;2023-05-10T14:20:10;8.23;;;3.23;;
69485;SDS011;56677;51.710;5.366;2023-05-10T14:22:36;7.10;;;2.93;;
69485;SDS011;56677;51.710;5.366;2023-05-10T14:25:01;10.00;;;3.35;;
69485;SDS011;56677;51.710;5.366;2023-05-10T14:27:26;9.25;;;3.60;;
69485;SDS011;56677;51.710;5.366;2023-05-10T14:29:51;6.80;;;3.10;;
69485;SDS011;56677;51.710;5.366;2023-05-10T14:32:16;10.32;;;3.50;;
69485;SDS011;56677;51.710;5.366;2023-05-10T14:34:41;7.47;;;3.40;;
69485;SDS011;56677;51.710;5.366;2023-05-10T14:37:06;7.03;;;3.35;;
69485;SDS011;56677;51.710;5.366;2023-05-10T14:39:31;7.75;;;3.30;;
69485;SDS011;56677;51.710;5.366;2023-05-10T14:41:56;7.83;;;3.37;;
69485;SDS011;56677;51.710;5.366;2023-05-10T14:44:22;9.85;;;4.50;;
69485;SDS011;56677;51.710;5.366;2023-05-10T14:46:47;9.37;;;4.37;;
69485;SDS011;56677;51.710;5.366;2023-05-10T14:49:12;8.03;;;4.20;;
69485;SDS011;56677;51.710;5.366;2023-05-10T14:51:37;9.55;;;3.78;;
69485;SDS011;56677;51.710;5.366;2023-05-10T14:54:02;10.20;;;3.90;;
69485;SDS011;56677;51.710;5.366;2023-05-10T14:56:27;10.50;;;3.47;;
69485;SDS011;56677;51.710;5.366;2023-05-10T14:58:52;9.88;;;3.60;;
69485;SDS011;56677;51.710;5.366;2023-05-10T15:01:18;8.17;;;3.80;;
69485;SDS011;56677;51.710;5.366;2023-05-10T15:03:43;7.00;;;3.28;;
69485;SDS011;56677;51.710;5.366;2023-05-10T15:06:08;8.55;;;3.63;;
69485;SDS011;56677;51.710;5.366;2023-05-10T15:08:33;7.37;;;3.13;;
69485;SDS011;56677;51.710;5.366;2023-05-10T15:10:58;6.78;;;3.53;;
69485;SDS011;56677;51.710;5.366;2023-05-10T15:13:23;10.03;;;3.43;;
69485;SDS011;56677;51.710;5.366;2023-05-10T15:15:49;6.30;;;3.38;;
69485;SDS011;56677;51.710;5.366;2023-05-10T15:18:14;7.78;;;2.88;;
69485;SDS011;56677;51.710;5.366;2023-05-10T15:20:39;9.23;;;3.13;;
69485;SDS011;56677;51.710;5.366;2023-05-10T15:23:04;10.07;;;3.37;;
69485;SDS011;56677;51.710;5.366;2023-05-10T15:25:29;15.88;;;5.90;;
69485;SDS011;56677;51.710;5.366;2023-05-10T15:27:54;48.20;;;19.58;;
69485;SDS011;56677;51.710;5.366;2023-05-10T15:30:19;119.23;;;41.77;;
69485;SDS011;56677;51.710;5.366;2023-05-10T15:32:44;71.77;;;26.77;;
69485;SDS011;56677;51.710;5.366;2023-05-10T15:35:10;72.93;;;25.57;;
69485;SDS011;56677;51.710;5.366;2023-05-10T15:37:35;79.53;;;25.93;;
69485;SDS011;56677;51.710;5.366;2023-05-10T15:40:00;93.35;;;30.85;;
69485;SDS011;56677;51.710;5.366;2023-05-10T15:42:25;127.03;;;40.53;;
69485;SDS011;56677;51.710;5.366;2023-05-10T15:44:50;163.03;;;53.83;;
69485;SDS011;56677;51.710;5.366;2023-05-10T15:47:15;232.65;;;74.10;;
69485;SDS011;56677;51.710;5.366;2023-05-10T15:49:40;205.77;;;66.28;;
69485;SDS011;56677;51.710;5.366;2023-05-10T15:52:06;215.02;;;70.03;;
69485;SDS011;56677;51.710;5.366;2023-05-10T15:54:31;248.50;;;76.55;;
69485;SDS011;56677;51.710;5.366;2023-05-10T15:56:56;249.13;;;82.78;;
69485;SDS011;56677;51.710;5.366;2023-05-10T15:59:21;249.63;;;80.25;;
69485;SDS011;56677;51.710;5.366;2023-05-10T16:01:46;257.43;;;81.87;;
69485;SDS011;56677;51.710;5.366;2023-05-10T16:04:11;261.77;;;87.45;;
69485;SDS011;56677;51.710;5.366;2023-05-10T16:06:36;270.55;;;87.05;;
69485;SDS011;56677;51.710;5.366;2023-05-10T16:09:01;254.23;;;85.72;;
69485;SDS011;56677;51.710;5.366;2023-05-10T16:11:27;255.23;;;85.07;;
69485;SDS011;56677;51.710;5.366;2023-05-10T16:13:52;275.98;;;87.07;;
69485;SDS011;56677;51.710;5.366;2023-05-10T16:16:17;271.33;;;86.55;;
69485;SDS011;56677;51.710;5.366;2023-05-10T16:18:42;258.80;;;86.65;;
69485;SDS011;56677;51.710;5.366;2023-05-10T16:21:07;265.98;;;85.55;;
69485;SDS011;56677;51.710;5.366;2023-05-10T16:23:32;264.45;;;89.47;;
69485;SDS011;56677;51.710;5.366;2023-05-10T16:25:57;243.43;;;81.40;;
69485;SDS011;56677;51.710;5.366;2023-05-10T16:28:22;257.10;;;81.97;;
69485;SDS011;56677;51.710;5.366;2023-05-10T16:30:48;260.75;;;83.65;;
69485;SDS011;56677;51.710;5.366;2023-05-10T16:33:13;242.43;;;81.97;;
69485;SDS011;56677;51.710;5.366;2023-05-10T16:35:38;234.87;;;79.03;;
69485;SDS011;56677;51.710;5.366;2023-05-10T16:38:03;242.83;;;78.03;;
69485;SDS011;56677;51.710;5.366;2023-05-10T16:40:28;222.15;;;76.22;;
69485;SDS011;56677;51.710;5.366;2023-05-10T16:42:53;241.95;;;77.90;;
69485;SDS011;56677;51.710;5.366;2023-05-10T16:45:19;227.68;;;75.82;;
69485;SDS011;56677;51.710;5.366;2023-05-10T16:47:44;223.83;;;73.00;;
69485;SDS011;56677;51.710;5.366;2023-05-10T16:50:09;217.07;;;71.53;;
69485;SDS011;56677;51.710;5.366;2023-05-10T16:52:34;208.07;;;66.10;;
69485;SDS011;56677;51.710;5.366;2023-05-10T16:55:00;208.30;;;70.23;;
69485;SDS011;56677;51.710;5.366;2023-05-10T16:57:25;213.93;;;71.70;;
69485;SDS011;56677;51.710;5.366;2023-05-10T16:59:50;208.57;;;67.90;;
69485;SDS011;56677;51.710;5.366;2023-05-10T17:02:15;221.23;;;71.30;;
69485;SDS011;56677;51.710;5.366;2023-05-10T17:04:41;190.87;;;67.00;;
69485;SDS011;56677;51.710;5.366;2023-05-10T17:07:06;196.27;;;65.97;;
69485;SDS011;56677;51.710;5.366;2023-05-10T17:09:31;189.13;;;61.90;;
69485;SDS011;56677;51.710;5.366;2023-05-10T17:11:57;188.52;;;62.38;;
69485;SDS011;56677;51.710;5.366;2023-05-10T17:14:22;193.23;;;63.22;;
69485;SDS011;56677;51.710;5.366;2023-05-10T17:16:47;179.65;;;62.80;;
69485;SDS011;56677;51.710;5.366;2023-05-10T17:19:12;174.23;;;58.05;;
69485;SDS011;56677;51.710;5.366;2023-05-10T17:21:37;182.17;;;57.87;;
69485;SDS011;56677;51.710;5.366;2023-05-10T17:24:03;178.32;;;58.05;;
69485;SDS011;56677;51.710;5.366;2023-05-10T17:26:28;168.30;;;54.13;;
69485;SDS011;56677;51.710;5.366;2023-05-10T17:28:53;161.88;;;55.35;;
69485;SDS011;56677;51.710;5.366;2023-05-10T17:31:18;159.80;;;54.03;;
69485;SDS011;56677;51.710;5.366;2023-05-10T17:33:43;171.82;;;56.80;;
69485;SDS011;56677;51.710;5.366;2023-05-10T17:36:08;159.00;;;55.20;;
69485;SDS011;56677;51.710;5.366;2023-05-10T17:38:34;158.77;;;52.42;;
69485;SDS011;56677;51.710;5.366;2023-05-10T17:40:59;157.40;;;52.33;;
69485;SDS011;56677;51.710;5.366;2023-05-10T17:43:24;156.80;;;51.40;;
69485;SDS011;56677;51.710;5.366;2023-05-10T17:45:49;155.55;;;52.35;;
69485;SDS011;56677;51.710;5.366;2023-05-10T17:48:15;157.70;;;52.42;;
69485;SDS011;56677;51.710;5.366;2023-05-10T17:50:40;146.80;;;49.50;;
69485;SDS011;56677;51.710;5.366;2023-05-10T17:53:05;155.83;;;51.07;;
69485;SDS011;56677;51.710;5.366;2023-05-10T17:55:31;153.60;;;50.42;;
69485;SDS011;56677;51.710;5.366;2023-05-10T17:57:56;147.10;;;49.15;;
69485;SDS011;56677;51.710;5.366;2023-05-10T18:00:21;148.07;;;50.75;;
69485;SDS011;56677;51.710;5.366;2023-05-10T18:02:46;138.00;;;48.38;;
69485;SDS011;56677;51.710;5.366;2023-05-10T18:05:11;144.35;;;48.70;;
69485;SDS011;56677;51.710;5.366;2023-05-10T18:07:36;131.35;;;44.63;;
69485;SDS011;56677;51.710;5.366;2023-05-10T18:10:01;132.75;;;43.47;;
69485;SDS011;56677;51.710;5.366;2023-05-10T18:12:26;125.55;;;42.03;;
69485;SDS011;56677;51.710;5.366;2023-05-10T18:14:51;124.70;;;42.53;;
69485;SDS011;56677;51.710;5.366;2023-05-10T18:17:17;127.27;;;43.20;;
69485;SDS011;56677;51.710;5.366;2023-05-10T18:19:42;116.30;;;40.42;;
69485;SDS011;56677;51.710;5.366;2023-05-10T18:22:07;122.90;;;40.75;;
69485;SDS011;56677;51.710;5.366;2023-05-10T18:24:32;113.40;;;38.45;;
69485;SDS011;56677;51.710;5.366;2023-05-10T18:26:57;110.23;;;38.77;;
69485;SDS011;56677;51.710;5.366;2023-05-10T18:29:22;113.67;;;38.00;;
69485;SDS011;56677;51.710;5.366;2023-05-10T18:31:48;110.18;;;39.05;;
69485;SDS011;56677;51.710;5.366;2023-05-10T18:34:13;101.07;;;35.95;;
69485;SDS011;56677;51.710;5.366;2023-05-10T18:36:38;107.05;;;36.45;;
69485;SDS011;56677;51.710;5.366;2023-05-10T18:39:03;103.80;;;36.03;;
69485;SDS011;56677;51.710;5.366;2023-05-10T18:41:29;93.40;;;32.57;;
69485;SDS011;56677;51.710;5.366;2023-05-10T18:43:54;92.10;;;32.75;;
69485;SDS011;56677;51.710;5.366;2023-05-10T18:46:19;89.07;;;31.77;;
69485;SDS011;56677;51.710;5.366;2023-05-10T18:48:44;88.60;;;30.65;;
69485;SDS011;56677;51.710;5.366;2023-05-10T18:51:09;88.27;;;30.43;;
69485;SDS011;56677;51.710;5.366;2023-05-10T18:53:34;82.35;;;29.38;;
69485;SDS011;56677;51.710;5.366;2023-05-10T18:55:59;81.00;;;28.67;;
69485;SDS011;56677;51.710;5.366;2023-05-10T18:58:26;90.03;;;29.77;;
69485;SDS011;56677;51.710;5.366;2023-05-10T19:00:51;79.80;;;27.92;;
69485;SDS011;56677;51.710;5.366;2023-05-10T19:03:16;83.93;;;27.63;;
69485;SDS011;56677;51.710;5.366;2023-05-10T19:05:41;78.20;;;27.60;;
69485;SDS011;56677;51.710;5.366;2023-05-10T19:08:06;72.35;;;24.60;;
69485;SDS011;56677;51.710;5.366;2023-05-10T19:10:32;73.80;;;24.43;;
69485;SDS011;56677;51.710;5.366;2023-05-10T19:12:57;68.43;;;23.70;;
69485;SDS011;56677;51.710;5.366;2023-05-10T19:15:22;67.43;;;22.92;;
69485;SDS011;56677;51.710;5.366;2023-05-10T19:17:47;62.17;;;21.50;;
69485;SDS011;56677;51.710;5.366;2023-05-10T19:20:12;58.67;;;21.13;;
69485;SDS011;56677;51.710;5.366;2023-05-10T19:22:37;57.80;;;21.33;;
69485;SDS011;56677;51.710;5.366;2023-05-10T19:25:02;62.17;;;19.77;;
69485;SDS011;56677;51.710;5.366;2023-05-10T19:27:28;59.93;;;20.43;;
69485;SDS011;56677;51.710;5.366;2023-05-10T19:29:53;58.45;;;19.70;;
69485;SDS011;56677;51.710;5.366;2023-05-10T19:32:18;53.05;;;19.08;;